Time;durP1;ratioP1;P1;durP2;ratioP2;P2;SDS_P1;SDS_P2;PMS_P1;PMS_P2;Temp;Humidity;BMP_temperature;BMP_pressure;BME280_temperature;BME280_humidity;BME280_pressure;Samples;Min_cycle;Max_cycle;Signal;HPM_P1;HPM_P2
2022/07/20 00:01:16;;;;;;;7.65;3.22;;;26.00;81.00;;;;;;5033546;28;20477;-47
2022/07/20 00:03:41;;;;;;;6.57;3.08;;;26.00;80.90;;;;;;5033318;28;20128;-49
2022/07/20 00:06:07;;;;;;;7.40;3.00;;;25.90;81.60;;;;;;5033463;28;20057;-49
2022/07/20 00:11:20;;;;;;;7.03;3.40;;;25.80;81.10;;;;;;5033265;28;20452;-46
2022/07/20 00:13:57;;;;;;;9.85;3.40;;;25.70;81.20;;;;;;5033014;28;20474;-49
2022/07/20 00:16:25;;;;;;;8.48;3.30;;;25.70;81.30;;;;;;5033331;28;20041;-45
2022/07/20 00:18:51;;;;;;;7.70;3.22;;;25.60;81.20;;;;;;5033090;28;20084;-45
2022/07/20 00:21:16;;;;;;;9.52;3.72;;;25.60;81.50;;;;;;5046301;28;20049;-46
2022/07/20 00:23:43;;;;;;;7.60;3.17;;;25.60;82.10;;;;;;5068003;28;20465;-49
2022/07/20 00:26:09;;;;;;;8.98;3.08;;;25.50;82.00;;;;;;5053062;28;20120;-46
2022/07/20 00:28:35;;;;;;;11.98;3.65;;;25.50;82.60;;;;;;5052670;28;20036;-48
2022/07/20 00:31:00;;;;;;;7.35;2.80;;;25.40;82.10;;;;;;5053041;28;20130;-47
2022/07/20 00:33:26;;;;;;;7.55;3.40;;;25.40;82.00;;;;;;5052864;28;20568;-50
2022/07/20 00:35:52;;;;;;;8.13;3.10;;;25.40;82.40;;;;;;5068041;28;20250;-46
2022/07/20 00:38:18;;;;;;;8.48;3.40;;;25.30;82.40;;;;;;5067803;28;20052;-46
2022/07/20 00:40:44;;;;;;;6.28;2.97;;;25.30;82.00;;;;;;5052451;28;20037;-47
2022/07/20 00:43:09;;;;;;;7.65;3.15;;;25.20;82.50;;;;;;5052547;28;20044;-47
2022/07/20 00:45:35;;;;;;;8.57;3.33;;;25.20;82.60;;;;;;5052546;28;20076;-47
2022/07/20 00:48:01;;;;;;;7.70;3.45;;;25.20;82.90;;;;;;5052571;28;20045;-46
2022/07/20 00:50:27;;;;;;;7.20;3.00;;;25.10;82.90;;;;;;5052139;28;20548;-45
2022/07/20 00:52:53;;;;;;;6.68;2.95;;;25.10;82.80;;;;;;5052454;28;20486;-49
2022/07/20 00:55:19;;;;;;;6.43;2.75;;;25.00;83.50;;;;;;5052334;28;20039;-49
2022/07/20 00:57:45;;;;;;;7.75;3.03;;;25.00;83.00;;;;;;5052636;28;20389;-46
2022/07/20 01:00:13;;;;;;;7.22;3.13;;;25.00;83.00;;;;;;5051009;28;20045;-47
2022/07/20 01:02:39;;;;;;;7.30;2.90;;;24.90;82.80;;;;;;5052632;28;20112;-48
2022/07/20 01:05:13;;;;;;;7.65;3.20;;;24.80;82.90;;;;;;5052186;28;20037;-47
2022/07/20 01:07:43;;;;;;;6.72;3.40;;;24.80;82.90;;;;;;5052138;28;20440;-46
2022/07/20 01:10:09;;;;;;;7.43;3.13;;;24.80;83.40;;;;;;5051980;28;20095;-47
2022/07/20 01:12:37;;;;;;;8.10;3.35;;;24.70;83.50;;;;;;5052169;28;20049;-45
2022/07/20 01:15:03;;;;;;;7.53;3.47;;;24.60;83.80;;;;;;5067427;28;20045;-49
2022/07/20 01:17:29;;;;;;;7.65;3.28;;;24.60;84.10;;;;;;5052434;28;20048;-47
2022/07/20 01:19:55;;;;;;;8.32;3.35;;;24.60;84.10;;;;;;5050032;28;20048;-46
2022/07/20 01:22:20;;;;;;;6.78;3.00;;;24.50;84.60;;;;;;5032355;28;20045;-47
2022/07/20 01:24:46;;;;;;;8.43;3.20;;;24.50;85.20;;;;;;5032261;28;20124;-46
2022/07/20 01:27:12;;;;;;;12.13;3.38;;;24.50;85.10;;;;;;5030757;28;20069;-51
2022/07/20 01:29:37;;;;;;;8.30;3.30;;;24.40;85.30;;;;;;5031716;28;20132;-46
2022/07/20 01:32:03;;;;;;;6.30;3.15;;;24.40;85.10;;;;;;5031990;28;20470;-49
2022/07/20 01:34:29;;;;;;;8.48;3.75;;;24.40;84.60;;;;;;5047406;28;20042;-50
2022/07/20 01:36:54;;;;;;;9.63;3.55;;;24.30;84.70;;;;;;5032114;28;20041;-51
2022/07/20 01:39:20;;;;;;;8.30;3.65;;;24.30;85.00;;;;;;5031976;28;20057;-50
2022/07/20 01:41:52;;;;;;;8.27;3.33;;;24.20;84.70;;;;;;5030891;28;20124;-46
2022/07/20 01:44:21;;;;;;;10.70;3.33;;;24.30;85.90;;;;;;5031741;28;20045;-46
2022/07/20 01:46:50;;;;;;;9.75;3.75;;;24.20;86.00;;;;;;5031942;28;20048;-45
2022/07/20 01:49:17;;;;;;;6.82;3.42;;;24.10;86.40;;;;;;5031921;28;20375;-47
2022/07/20 01:51:43;;;;;;;8.80;3.88;;;24.10;87.40;;;;;;5030867;28;20104;-45
2022/07/20 01:54:09;;;;;;;6.82;3.30;;;24.00;87.80;;;;;;5031650;28;20482;-45
2022/07/20 01:56:35;;;;;;;7.03;3.28;;;24.00;88.00;;;;;;5032196;28;20385;-45
2022/07/20 01:59:00;;;;;;;7.03;3.30;;;24.00;87.60;;;;;;5030497;28;20075;-47
2022/07/20 02:01:26;;;;;;;7.38;3.50;;;23.90;89.50;;;;;;5032001;28;20152;-46
2022/07/20 02:03:52;;;;;;;9.18;3.10;;;23.90;88.10;;;;;;5034574;28;20049;-46
2022/07/20 02:06:17;;;;;;;8.05;3.40;;;23.80;87.60;;;;;;5034405;28;20041;-45
2022/07/20 02:08:43;;;;;;;8.30;3.70;;;23.70;87.20;;;;;;5035671;28;20504;-47
2022/07/20 02:11:09;;;;;;;9.15;3.40;;;23.80;87.30;;;;;;5035502;28;20038;-45
2022/07/20 02:13:36;;;;;;;7.88;3.10;;;23.80;87.10;;;;;;5034183;28;20038;-46
2022/07/20 02:16:15;;;;;;;7.05;3.22;;;23.70;87.10;;;;;;5035321;28;20041;-46
2022/07/20 02:18:50;;;;;;;8.15;3.10;;;23.80;86.80;;;;;;5035564;28;20041;-47
2022/07/20 02:21:17;;;;;;;8.38;3.97;;;23.80;87.20;;;;;;5048787;28;20064;-46
2022/07/20 02:23:44;;;;;;;9.18;3.72;;;23.80;86.90;;;;;;5055394;28;20048;-46
2022/07/20 02:26:09;;;;;;;7.00;3.25;;;23.70;88.00;;;;;;5055079;28;20683;-48
2022/07/20 02:28:36;;;;;;;9.30;3.70;;;23.70;87.10;;;;;;5055126;28;20091;-48
2022/07/20 02:31:02;;;;;;;8.55;3.15;;;23.80;86.20;;;;;;5054839;28;20501;-46
2022/07/20 02:33:28;;;;;;;7.40;3.70;;;23.70;86.00;;;;;;5055107;28;20120;-48
2022/07/20 02:35:54;;;;;;;6.72;3.00;;;23.70;86.50;;;;;;5055052;28;20124;-50
2022/07/20 02:38:19;;;;;;;8.50;3.35;;;23.80;85.60;;;;;;5055040;28;20128;-47
2022/07/20 02:40:45;;;;;;;8.73;3.47;;;23.70;88.50;;;;;;5053537;28;20076;-48
2022/07/20 02:43:11;;;;;;;10.15;3.65;;;23.70;87.30;;;;;;5070250;28;20378;-46
2022/07/20 02:45:36;;;;;;;10.73;4.05;;;23.60;87.30;;;;;;5054964;28;20120;-49
2022/07/20 02:48:02;;;;;;;8.38;3.47;;;23.60;87.30;;;;;;5054996;28;20037;-46
2022/07/20 02:50:34;;;;;;;7.00;3.20;;;23.60;86.40;;;;;;5054475;28;20477;-47
2022/07/20 02:53:01;;;;;;;8.38;3.72;;;23.60;86.50;;;;;;5054708;28;20037;-45
2022/07/20 02:55:27;;;;;;;9.38;3.85;;;23.50;86.40;;;;;;5054306;28;20041;-50
2022/07/20 02:57:53;;;;;;;9.25;3.78;;;23.60;86.10;;;;;;5054473;28;20393;-47
2022/07/20 03:00:20;;;;;;;6.75;3.38;;;23.60;85.90;;;;;;5053245;28;20060;-47
2022/07/20 03:02:47;;;;;;;8.20;3.58;;;23.50;85.70;;;;;;5054408;28;20045;-46
2022/07/20 03:05:13;;;;;;;8.38;3.30;;;23.50;85.90;;;;;;5054657;28;20049;-47
2022/07/20 03:07:39;;;;;;;7.60;3.47;;;23.50;86.60;;;;;;5054591;28;20512;-45
2022/07/20 03:10:06;;;;;;;8.77;3.55;;;23.50;86.10;;;;;;5053026;28;20141;-47
2022/07/20 03:12:31;;;;;;;6.60;3.30;;;23.40;85.90;;;;;;5054040;28;20090;-45
2022/07/20 03:14:57;;;;;;;7.72;3.42;;;23.40;86.20;;;;;;5054446;28;20507;-47
2022/07/20 03:17:23;;;;;;;9.27;4.55;;;23.30;86.10;;;;;;5054354;28;20044;-44
2022/07/20 03:19:49;;;;;;;8.98;3.20;;;23.30;86.20;;;;;;5052742;28;20134;-45
2022/07/20 03:22:15;;;;;;;7.55;3.20;;;23.30;86.60;;;;;;5034141;28;20077;-45
2022/07/20 03:24:41;;;;;;;8.88;3.58;;;23.30;87.00;;;;;;5034048;28;20045;-46
2022/07/20 03:27:06;;;;;;;8.45;3.47;;;23.30;87.40;;;;;;5033747;28;20052;-51
2022/07/20 03:29:32;;;;;;;8.63;3.45;;;23.30;87.20;;;;;;5033726;28;20197;-47
2022/07/20 03:31:58;;;;;;;8.95;3.50;;;23.20;87.10;;;;;;5034096;28;20064;-50
2022/07/20 03:34:23;;;;;;;8.52;3.75;;;23.20;87.50;;;;;;5034141;28;20512;-47
2022/07/20 03:36:49;;;;;;;8.05;3.42;;;23.20;87.10;;;;;;5033941;28;20103;-47
2022/07/20 03:39:15;;;;;;;7.93;3.33;;;23.20;87.80;;;;;;5049105;28;20390;-45
2022/07/20 03:41:41;;;;;;;8.23;3.55;;;23.20;87.70;;;;;;5033472;28;20112;-45
2022/07/20 03:44:07;;;;;;;11.02;3.67;;;23.10;87.90;;;;;;5034019;28;20046;-46
2022/07/20 03:46:33;;;;;;;8.10;3.80;;;23.10;87.20;;;;;;5048899;28;20073;-46
2022/07/20 03:48:58;;;;;;;7.53;3.63;;;23.10;87.30;;;;;;5033858;28;20440;-45
2022/07/20 03:51:24;;;;;;;10.15;4.40;;;23.00;87.20;;;;;;5032465;28;20036;-45
2022/07/20 03:53:50;;;;;;;6.72;3.50;;;23.10;87.20;;;;;;5033604;28;20049;-46
2022/07/20 03:56:15;;;;;;;10.73;4.10;;;23.00;87.00;;;;;;5033413;28;20083;-46
2022/07/20 03:58:42;;;;;;;7.95;3.53;;;23.00;87.60;;;;;;5033467;28;20390;-47
2022/07/20 04:01:08;;;;;;;8.43;4.15;;;23.00;87.80;;;;;;5033560;28;20433;-47
2022/07/20 04:03:34;;;;;;;7.57;3.92;;;23.00;88.10;;;;;;5048660;28;20041;-50
2022/07/20 04:06:00;;;;;;;9.30;3.45;;;23.00;87.80;;;;;;5033556;28;20037;-45
2022/07/20 04:08:26;;;;;;;10.90;4.00;;;23.00;87.30;;;;;;5033456;28;20042;-45
2022/07/20 04:10:52;;;;;;;7.75;3.45;;;23.00;88.20;;;;;;5048414;28;20041;-46
2022/07/20 04:13:17;;;;;;;9.25;3.63;;;23.00;87.80;;;;;;5031780;28;20048;-45
2022/07/20 04:15:43;;;;;;;7.38;3.53;;;23.00;87.20;;;;;;5033083;28;20048;-46
2022/07/20 04:18:09;;;;;;;8.48;3.45;;;23.00;88.20;;;;;;5048447;28;20127;-45
2022/07/20 04:20:35;;;;;;;7.90;3.38;;;23.00;88.50;;;;;;5040850;28;20036;-44
2022/07/20 04:23:00;;;;;;;8.02;3.83;;;22.90;87.90;;;;;;5052926;28;20086;-44
2022/07/20 04:25:26;;;;;;;7.68;3.33;;;23.00;87.60;;;;;;5052205;28;20044;-47
2022/07/20 04:27:52;;;;;;;6.55;3.38;;;23.00;87.40;;;;;;5052962;28;20037;-46
2022/07/20 04:30:18;;;;;;;10.00;4.50;;;23.00;87.50;;;;;;5052515;28;20060;-47
2022/07/20 04:32:44;;;;;;;8.82;3.85;;;23.10;87.50;;;;;;5052744;28;20449;-46
2022/07/20 04:35:10;;;;;;;7.50;3.80;;;23.10;87.10;;;;;;5067912;28;20076;-46
2022/07/20 04:37:37;;;;;;;7.63;3.30;;;23.10;88.00;;;;;;5052695;28;20043;-48
2022/07/20 04:40:04;;;;;;;8.43;4.32;;;23.10;88.30;;;;;;5052369;28;20104;-46
2022/07/20 04:42:30;;;;;;;7.60;3.38;;;23.10;87.70;;;;;;5052486;28;20087;-50
2022/07/20 04:44:56;;;;;;;9.77;3.95;;;23.20;87.90;;;;;;5052728;28;20116;-50
2022/07/20 04:47:21;;;;;;;8.70;3.13;;;23.10;87.70;;;;;;5052634;28;20529;-46
2022/07/20 04:49:47;;;;;;;8.77;3.65;;;23.10;88.00;;;;;;5067698;28;20037;-50
2022/07/20 04:52:13;;;;;;;9.52;4.45;;;23.20;87.90;;;;;;5052229;28;20665;-48
2022/07/20 04:54:39;;;;;;;8.13;3.60;;;23.20;88.00;;;;;;5067684;28;20045;-47
2022/07/20 04:57:05;;;;;;;9.43;3.78;;;23.20;88.80;;;;;;5052457;28;20043;-49
2022/07/20 04:59:30;;;;;;;7.75;3.67;;;23.30;88.80;;;;;;5051073;28;20117;-46
2022/07/20 05:01:56;;;;;;;8.35;3.40;;;23.20;88.60;;;;;;5052454;28;20038;-47
2022/07/20 05:04:22;;;;;;;6.80;3.72;;;23.30;88.10;;;;;;5052423;28;20037;-46
2022/07/20 05:06:48;;;;;;;8.98;3.90;;;23.30;88.00;;;;;;5050919;28;20045;-46
2022/07/20 05:09:13;;;;;;;8.98;3.58;;;23.20;87.60;;;;;;5052074;28;20033;-46
2022/07/20 05:11:40;;;;;;;8.65;3.92;;;23.20;87.30;;;;;;5052423;28;20048;-46
2022/07/20 05:14:06;;;;;;;6.70;3.78;;;23.30;88.10;;;;;;5052374;28;20190;-45
2022/07/20 05:16:31;;;;;;;8.52;3.83;;;23.40;88.80;;;;;;5052396;28;20447;-46
2022/07/20 05:18:57;;;;;;;9.80;3.80;;;23.40;88.90;;;;;;5052054;28;20028;-45
2022/07/20 05:21:23;;;;;;;6.63;3.53;;;23.40;88.60;;;;;;5037741;28;20103;-46
2022/07/20 05:23:48;;;;;;;9.98;3.58;;;23.50;88.90;;;;;;5031985;28;20095;-46
2022/07/20 05:26:14;;;;;;;7.68;3.67;;;23.60;89.00;;;;;;5032263;28;20045;-51
2022/07/20 05:28:43;;;;;;;8.85;3.65;;;23.70;89.00;;;;;;5031876;28;20045;-49
2022/07/20 05:31:10;;;;;;;8.25;3.67;;;23.70;88.90;;;;;;5030753;28;20088;-48
2022/07/20 05:33:36;;;;;;;11.77;3.97;;;23.70;88.70;;;;;;5032257;28;20037;-49
2022/07/20 05:36:02;;;;;;;9.45;3.95;;;23.70;87.90;;;;;;5032247;28;20370;-49
2022/07/20 05:38:28;;;;;;;8.30;3.97;;;23.80;88.40;;;;;;5035811;28;20037;-50
2022/07/20 05:40:55;;;;;;;8.48;3.80;;;23.90;88.70;;;;;;5035913;28;20037;-49
2022/07/20 05:43:20;;;;;;;7.28;3.90;;;24.00;88.70;;;;;;5035852;28;20077;-49
2022/07/20 05:45:46;;;;;;;9.40;3.58;;;24.10;88.50;;;;;;5035486;28;20080;-45
2022/07/20 05:48:12;;;;;;;9.15;4.13;;;24.10;88.20;;;;;;5035845;28;20041;-45
2022/07/20 05:50:39;;;;;;;8.18;3.75;;;24.30;88.30;;;;;;5036092;28;20044;-45
2022/07/20 05:53:05;;;;;;;7.03;3.55;;;24.30;88.60;;;;;;5036086;28;20128;-47
2022/07/20 05:55:32;;;;;;;8.48;4.20;;;24.30;88.70;;;;;;5035689;28;20042;-45
2022/07/20 05:57:57;;;;;;;7.22;4.05;;;24.40;88.50;;;;;;5035793;28;20034;-48
2022/07/20 06:00:23;;;;;;;9.13;4.00;;;24.50;88.60;;;;;;5034673;28;20048;-45
2022/07/20 06:02:49;;;;;;;7.47;4.05;;;24.50;88.90;;;;;;5034653;28;20049;-46
2022/07/20 06:05:14;;;;;;;9.55;4.25;;;24.50;88.80;;;;;;5034380;28;20041;-46
2022/07/20 06:07:40;;;;;;;7.55;4.00;;;24.60;88.70;;;;;;5035904;28;20037;-47
2022/07/20 06:10:06;;;;;;;9.80;4.25;;;24.70;89.00;;;;;;5035594;28;20180;-46
2022/07/20 06:12:32;;;;;;;17.60;4.22;;;24.80;89.30;;;;;;5035752;28;20041;-51
2022/07/20 06:14:57;;;;;;;9.10;4.13;;;24.90;88.90;;;;;;5035259;28;20497;-45
2022/07/20 06:17:23;;;;;;;9.77;4.20;;;24.90;88.90;;;;;;5035612;28;20033;-47
2022/07/20 06:19:49;;;;;;;8.25;3.97;;;25.10;89.10;;;;;;5036780;28;20041;-45
2022/07/20 06:22:14;;;;;;;7.47;3.83;;;25.10;89.10;;;;;;5070848;28;20080;-50
2022/07/20 06:24:40;;;;;;;9.25;4.20;;;25.30;89.80;;;;;;5055454;28;20041;-48
2022/07/20 06:27:06;;;;;;;9.38;4.38;;;25.40;88.90;;;;;;5070661;28;20059;-51
2022/07/20 06:29:32;;;;;;;9.55;3.90;;;25.40;89.60;;;;;;5054935;28;20048;-46
2022/07/20 06:31:57;;;;;;;9.82;4.80;;;25.60;88.90;;;;;;5070556;28;20068;-46
2022/07/20 06:34:23;;;;;;;10.32;4.70;;;25.70;88.90;;;;;;5055111;28;20041;-50
2022/07/20 06:36:49;;;;;;;9.13;3.90;;;25.90;88.20;;;;;;5053957;28;20044;-50
2022/07/20 06:39:14;;;;;;;12.25;4.22;;;26.00;87.60;;;;;;5054949;28;20041;-55
2022/07/20 06:41:40;;;;;;;7.32;4.05;;;26.20;87.20;;;;;;5055021;28;20041;-50
2022/07/20 06:44:05;;;;;;;9.75;4.20;;;26.30;86.00;;;;;;5055012;28;20072;-47
2022/07/20 06:46:31;;;;;;;9.25;4.32;;;26.30;84.10;;;;;;5054964;28;20045;-50
2022/07/20 06:48:57;;;;;;;11.43;4.18;;;26.30;84.00;;;;;;5053986;28;20127;-48
2022/07/20 06:51:24;;;;;;;11.50;4.57;;;26.30;85.00;;;;;;5053380;28;20052;-47
2022/07/20 06:53:50;;;;;;;9.88;4.45;;;26.30;85.20;;;;;;5054658;28;20037;-48
2022/07/20 06:56:16;;;;;;;12.38;4.60;;;26.40;84.90;;;;;;5054656;28;20120;-59
2022/07/20 06:58:41;;;;;;;11.57;4.68;;;26.30;85.70;;;;;;5053276;28;20392;-58
2022/07/20 07:01:07;;;;;;;9.02;4.20;;;26.30;86.00;;;;;;5054705;28;20037;-59
2022/07/20 07:03:33;;;;;;;8.68;4.28;;;26.50;85.70;;;;;;5054523;28;20041;-58
2022/07/20 07:05:59;;;;;;;7.15;4.15;;;26.60;85.90;;;;;;5070025;28;20473;-59
2022/07/20 07:08:25;;;;;;;10.73;4.93;;;26.60;86.30;;;;;;5054402;28;20040;-58
2022/07/20 07:10:51;;;;;;;10.68;4.68;;;26.60;86.60;;;;;;5056021;28;20052;-60
2022/07/20 07:13:16;;;;;;;12.80;4.85;;;26.70;86.00;;;;;;5070006;28;20120;-59
2022/07/20 07:15:42;;;;;;;9.52;5.47;;;26.70;86.30;;;;;;5054018;28;20175;-59
2022/07/20 07:18:08;;;;;;;9.40;5.72;;;26.60;86.70;;;;;;5054423;28;20037;-59
2022/07/20 07:20:33;;;;;;;11.48;5.35;;;26.70;86.80;;;;;;5046458;28;20045;-59
2022/07/20 07:22:59;;;;;;;13.93;6.72;;;26.80;86.90;;;;;;5034074;28;20045;-59
2022/07/20 07:25:25;;;;;;;10.77;5.22;;;26.80;87.80;;;;;;5033933;28;20077;-60
2022/07/20 07:27:50;;;;;;;12.50;6.30;;;26.80;88.10;;;;;;5034419;28;20049;-59
2022/07/20 07:30:16;;;;;;;10.82;6.30;;;26.70;88.30;;;;;;5033793;28;20433;-59
2022/07/20 07:32:42;;;;;;;11.55;6.40;;;26.80;88.70;;;;;;5033952;28;20077;-58
2022/07/20 07:35:08;;;;;;;10.80;6.18;;;26.70;90.10;;;;;;5033807;28;20034;-59
2022/07/20 07:37:37;;;;;;;12.80;7.65;;;26.90;90.30;;;;;;5034161;28;20397;-59
2022/07/20 07:40:03;;;;;;;12.55;6.93;;;26.80;90.40;;;;;;5034039;28;20049;-59
2022/07/20 07:42:29;;;;;;;10.35;6.75;;;26.90;90.40;;;;;;5034222;28;20127;-58
2022/07/20 07:44:55;;;;;;;12.50;6.78;;;27.00;90.50;;;;;;5033630;28;20089;-59
2022/07/20 07:47:20;;;;;;;12.05;7.20;;;27.00;90.70;;;;;;5033637;28;20466;-59
2022/07/20 07:49:46;;;;;;;9.93;6.40;;;27.10;90.90;;;;;;5033317;28;20038;-59
2022/07/20 07:52:12;;;;;;;14.40;7.53;;;27.30;91.20;;;;;;5033713;28;20037;-60
2022/07/20 07:54:37;;;;;;;12.50;7.18;;;27.10;91.10;;;;;;5048978;28;20076;-58
2022/07/20 07:57:03;;;;;;;11.73;7.45;;;27.20;91.40;;;;;;5033341;28;20033;-59
2022/07/20 07:59:29;;;;;;;13.23;7.70;;;27.10;91.40;;;;;;5032472;28;20141;-58
2022/07/20 08:01:55;;;;;;;13.77;7.65;;;27.20;91.70;;;;;;5031947;28;20081;-58
2022/07/20 08:04:20;;;;;;;13.25;8.43;;;27.20;91.90;;;;;;5033343;28;20136;-58
2022/07/20 08:06:48;;;;;;;17.27;9.77;;;27.30;92.80;;;;;;5033568;28;20052;-58
2022/07/20 08:09:14;;;;;;;17.38;10.00;;;27.30;92.70;;;;;;5033266;28;20045;-57
2022/07/20 08:11:39;;;;;;;19.00;9.80;;;27.40;93.00;;;;;;5033464;28;20050;-59
2022/07/20 08:14:05;;;;;;;17.17;11.98;;;27.30;93.60;;;;;;5033089;28;20049;-58
2022/07/20 08:16:32;;;;;;;17.08;12.23;;;27.30;93.60;;;;;;5033280;28;20121;-58
2022/07/20 08:18:58;;;;;;;20.80;13.18;;;27.40;94.00;;;;;;5033255;28;20117;-58
2022/07/20 08:21:23;;;;;;;21.33;13.35;;;27.40;94.00;;;;;;5047581;28;20129;-59
2022/07/20 08:23:49;;;;;;;16.95;11.88;;;27.50;94.10;;;;;;5053530;28;20524;-59
2022/07/20 08:26:15;;;;;;;17.63;12.65;;;27.60;94.40;;;;;;5068213;28;20052;-59
2022/07/20 08:28:40;;;;;;;20.35;13.13;;;27.60;94.80;;;;;;5053121;28;20393;-58
2022/07/20 08:31:06;;;;;;;20.50;13.07;;;27.50;94.80;;;;;;5068024;28;20498;-59
2022/07/20 08:33:31;;;;;;;21.73;14.50;;;27.60;95.00;;;;;;5052464;28;20040;-58
2022/07/20 08:35:57;;;;;;;21.50;14.55;;;27.50;95.20;;;;;;5052808;28;20041;-59
2022/07/20 08:38:23;;;;;;;22.23;14.40;;;27.40;95.70;;;;;;5052892;28;20037;-59
2022/07/20 08:40:48;;;;;;;23.20;16.42;;;27.40;96.00;;;;;;5052611;28;20072;-59
2022/07/20 08:43:16;;;;;;;23.30;15.82;;;27.40;96.00;;;;;;5052606;28;20045;-59
2022/07/20 08:45:42;;;;;;;24.73;18.30;;;27.60;96.70;;;;;;5067986;28;20040;-59
2022/07/20 08:48:11;;;;;;;25.40;17.60;;;27.30;97.40;;;;;;5052474;28;20041;-59
2022/07/20 08:50:37;;;;;;;26.83;17.75;;;27.40;97.00;;;;;;5052564;28;20115;-59
2022/07/20 08:53:04;;;;;;;26.55;19.40;;;27.60;97.20;;;;;;5052772;28;20041;-60
2022/07/20 08:55:30;;;;;;;29.25;21.13;;;27.60;97.90;;;;;;5052822;28;20366;-58
2022/07/20 08:57:57;;;;;;;27.27;19.65;;;27.60;97.70;;;;;;5067767;28;20033;-59
2022/07/20 09:00:22;;;;;;;29.00;20.13;;;27.50;97.90;;;;;;5052559;28;20048;-59
2022/07/20 09:02:56;;;;;;;27.83;19.77;;;27.60;97.90;;;;;;5052621;28;20048;-59
2022/07/20 09:05:23;;;;;;;29.48;21.85;;;27.60;98.10;;;;;;5052583;28;20120;-59
2022/07/20 09:07:52;;;;;;;31.17;21.00;;;27.60;98.30;;;;;;5052295;28;20048;-59
2022/07/20 09:10:27;;;;;;;28.02;21.38;;;27.70;98.10;;;;;;5052114;28;20393;-59
2022/07/20 09:13:01;;;;;;;30.15;20.38;;;27.70;98.00;;;;;;5052335;28;20094;-58
2022/07/20 09:15:36;;;;;;;28.50;20.83;;;27.70;98.40;;;;;;5052251;28;20448;-57
2022/07/20 09:18:12;;;;;;;29.85;20.98;;;27.80;98.20;;;;;;5052362;28;20045;-58
2022/07/20 09:20:57;;;;;;;27.33;21.23;;;27.80;97.50;;;;;;5042518;28;20049;-57
2022/07/20 09:23:26;;;;;;;31.52;22.40;;;27.80;97.90;;;;;;5047582;28;20569;-57
2022/07/20 09:25:53;;;;;;;30.00;23.88;;;27.80;97.80;;;;;;5032038;28;20037;-57
2022/07/20 09:28:20;;;;;;;29.08;22.40;;;27.60;97.70;;;;;;5032257;28;20057;-57
2022/07/20 09:30:54;;;;;;;30.58;23.85;;;27.50;97.90;;;;;;5031843;28;20062;-57
2022/07/20 09:33:31;;;;;;;32.05;23.17;;;27.40;98.40;;;;;;5031963;28;20125;-57
2022/07/20 09:36:04;;;;;;;27.15;22.90;;;27.70;99.00;;;;;;5032277;28;20389;-57
2022/07/20 09:38:33;;;;;;;33.72;22.98;;;27.60;98.60;;;;;;5031868;28;20501;-57
2022/07/20 09:40:59;;;;;;;33.35;21.95;;;27.60;98.20;;;;;;5032212;28;20049;-58
2022/07/20 09:43:35;;;;;;;31.40;23.02;;;27.60;97.60;;;;;;5032171;28;20401;-57
2022/07/20 09:46:19;;;;;;;32.60;24.05;;;27.40;98.00;;;;;;5032014;28;20389;-57
2022/07/20 09:48:56;;;;;;;27.73;22.02;;;27.50;97.80;;;;;;5032089;28;20111;-57
2022/07/20 09:51:24;;;;;;;31.75;21.58;;;27.60;97.40;;;;;;5031939;28;20045;-57
2022/07/20 09:53:56;;;;;;;30.42;20.85;;;27.40;97.10;;;;;;5032138;28;20041;-57
2022/07/20 09:56:22;;;;;;;26.25;21.67;;;27.50;97.30;;;;;;5032046;28;20381;-57
2022/07/20 09:58:50;;;;;;;25.10;20.90;;;27.70;97.40;;;;;;5032032;28;20055;-57
2022/07/20 10:01:22;;;;;;;28.15;21.17;;;27.80;96.90;;;;;;5032115;28;20119;-58
2022/07/20 10:03:51;;;;;;;27.23;21.05;;;27.80;97.20;;;;;;5031986;28;20045;-59
2022/07/20 10:06:18;;;;;;;28.02;21.38;;;27.80;96.80;;;;;;5032034;28;20041;-58
2022/07/20 10:08:44;;;;;;;28.17;20.90;;;27.90;96.40;;;;;;5031575;28;20432;-58
2022/07/20 10:11:11;;;;;;;24.65;19.77;;;27.90;95.90;;;;;;5029916;28;20053;-58
2022/07/20 10:13:38;;;;;;;25.48;18.23;;;27.80;96.00;;;;;;5031713;28;20091;-58
2022/07/20 10:16:17;;;;;;;25.85;17.42;;;27.90;95.50;;;;;;5031536;28;20536;-57
2022/07/20 10:18:45;;;;;;;21.10;17.08;;;27.90;95.60;;;;;;5031704;28;20046;-58
2022/07/20 10:21:32;;;;;;;22.33;16.58;;;28.20;96.00;;;;;;5043258;28;20571;-57
2022/07/20 10:24:18;;;;;;;22.38;15.43;;;28.30;94.80;;;;;;5054490;28;20087;-58
2022/07/20 10:26:46;;;;;;;23.73;16.08;;;28.10;93.80;;;;;;5055485;28;20409;-58
2022/07/20 10:29:27;;;;;;;23.23;16.05;;;28.00;93.70;;;;;;5053692;28;20052;-58
2022/07/20 10:32:16;;;;;;;21.23;15.43;;;27.80;93.60;;;;;;5055126;28;20540;-58
2022/07/20 10:34:47;;;;;;;21.13;15.68;;;27.80;93.30;;;;;;5055405;28;20041;-57
2022/07/20 10:37:25;;;;;;;18.92;14.00;;;27.90;93.20;;;;;;5054953;28;20076;-58
2022/07/20 10:40:12;;;;;;;20.73;13.68;;;28.10;93.20;;;;;;5054984;28;20045;-59
2022/07/20 10:43:14;;;;;;;19.00;13.68;;;28.20;93.50;;;;;;5054797;28;20124;-58
2022/07/20 10:45:40;;;;;;;16.40;12.82;;;28.10;93.50;;;;;;5054995;28;20048;-58
2022/07/20 10:48:11;;;;;;;17.33;13.80;;;28.20;93.20;;;;;;5054807;28;20511;-58
2022/07/20 10:50:39;;;;;;;17.40;13.23;;;28.20;93.50;;;;;;5054951;28;20044;-58
2022/07/20 10:53:11;;;;;;;15.43;11.73;;;28.20;93.00;;;;;;5054007;28;20044;-57
2022/07/20 10:55:37;;;;;;;18.90;12.30;;;28.40;93.30;;;;;;5053749;28;20041;-57
2022/07/20 10:58:04;;;;;;;18.77;12.07;;;28.40;93.40;;;;;;5054756;28;20064;-57
2022/07/20 11:00:34;;;;;;;17.60;11.73;;;28.60;93.40;;;;;;5054719;28;20048;-57
2022/07/20 11:03:11;;;;;;;17.73;11.48;;;28.70;93.30;;;;;;5055460;28;20049;-57
2022/07/20 11:05:38;;;;;;;19.73;12.80;;;28.60;92.80;;;;;;5055484;28;20075;-58
2022/07/20 11:08:08;;;;;;;15.88;11.68;;;28.50;92.80;;;;;;5054515;28;20408;-58
2022/07/20 11:10:35;;;;;;;18.23;11.68;;;28.60;93.00;;;;;;5054902;28;20045;-58
2022/07/20 11:13:11;;;;;;;16.55;12.43;;;28.50;92.60;;;;;;5070327;28;20049;-58
2022/07/20 11:15:43;;;;;;;18.33;12.20;;;28.60;92.60;;;;;;5054737;28;20041;-58
2022/07/20 11:18:12;;;;;;;21.48;12.30;;;28.40;92.20;;;;;;5055160;28;20125;-58
2022/07/20 11:20:46;;;;;;;18.80;12.23;;;28.50;92.80;;;;;;5046073;28;20095;-58
2022/07/20 11:23:13;;;;;;;17.17;12.88;;;28.40;92.50;;;;;;5033540;28;20563;-57
2022/07/20 11:25:56;;;;;;;19.85;12.40;;;28.30;92.10;;;;;;5017141;28;20052;-59
2022/07/20 11:28:25;;;;;;;19.05;12.60;;;28.60;93.00;;;;;;5034793;28;20481;-58
2022/07/20 11:30:52;;;;;;;19.58;13.07;;;28.60;92.80;;;;;;5034062;28;20425;-58
2022/07/20 11:33:30;;;;;;;18.90;13.43;;;28.80;92.80;;;;;;5034044;28;20060;-57
2022/07/20 11:35:59;;;;;;;18.42;12.50;;;28.80;92.90;;;;;;5033957;28;20077;-58
2022/07/20 11:38:34;;;;;;;17.63;13.02;;;28.80;92.60;;;;;;5033850;28;20147;-58
2022/07/20 11:41:02;;;;;;;20.95;12.68;;;28.90;92.70;;;;;;5034409;28;20053;-58
2022/07/20 11:43:29;;;;;;;16.88;11.88;;;28.90;92.00;;;;;;5033947;28;20504;-58
2022/07/20 11:46:15;;;;;;;15.07;11.27;;;29.10;92.00;;;;;;5034059;28;20041;-58
2022/07/20 11:48:42;;;;;;;15.07;10.70;;;28.70;90.80;;;;;;5034099;28;20129;-58
2022/07/20 11:51:09;;;;;;;14.32;10.45;;;28.70;90.30;;;;;;5033948;28;20038;-56
2022/07/20 11:53:38;;;;;;;16.35;9.95;;;28.70;91.10;;;;;;5033466;28;20045;-58
2022/07/20 11:56:10;;;;;;;15.30;10.35;;;28.80;91.20;;;;;;5033939;28;20037;-59
2022/07/20 11:58:37;;;;;;;16.13;10.13;;;29.00;92.00;;;;;;5048997;28;20056;-58
2022/07/20 12:01:06;;;;;;;16.13;9.73;;;29.30;92.00;;;;;;5033987;28;20401;-58
2022/07/20 12:03:35;;;;;;;19.27;10.45;;;29.20;91.70;;;;;;5033463;28;20104;-58
2022/07/20 12:06:09;;;;;;;14.40;9.40;;;29.50;92.10;;;;;;5033730;28;20103;-59
2022/07/20 12:08:36;;;;;;;17.67;9.18;;;29.30;91.70;;;;;;5033287;28;20037;-58
2022/07/20 12:11:02;;;;;;;17.45;8.93;;;29.30;92.00;;;;;;5032107;28;20041;-58
2022/07/20 12:13:29;;;;;;;15.13;9.32;;;29.50;91.80;;;;;;5033529;28;20441;-58
2022/07/20 12:16:03;;;;;;;13.85;8.90;;;29.40;92.10;;;;;;5033185;28;20045;-58
2022/07/20 12:18:32;;;;;;;17.60;9.52;;;29.50;91.70;;;;;;5033183;28;20084;-49
2022/07/20 12:20:59;;;;;;;14.02;8.02;;;29.60;91.40;;;;;;5044176;28;20048;-47
2022/07/20 12:23:26;;;;;;;14.40;8.90;;;29.60;91.00;;;;;;5052977;28;20037;-47
2022/07/20 12:25:52;;;;;;;14.88;9.40;;;29.60;90.80;;;;;;5053131;28;20076;-48
2022/07/20 12:28:40;;;;;;;18.67;9.40;;;29.50;90.70;;;;;;5053185;28;20052;-46
2022/07/20 12:31:14;;;;;;;13.30;9.60;;;29.60;89.30;;;;;;5052570;28;20091;-50
2022/07/20 12:34:06;;;;;;;15.13;10.07;;;29.10;89.60;;;;;;5052942;28;20132;-46
2022/07/20 12:36:39;;;;;;;17.40;10.98;;;29.40;89.40;;;;;;5051589;28;20041;-46
2022/07/20 12:39:13;;;;;;;16.27;11.45;;;29.10;88.90;;;;;;5052815;28;20091;-47
2022/07/20 12:41:40;;;;;;;15.68;13.45;;;29.00;88.30;;;;;;5052948;28;20060;-47
2022/07/20 12:44:29;;;;;;;16.65;12.65;;;28.80;87.80;;;;;;5052553;28;20052;-47